sensor_id;sensor_type;location;lat;lon;timestamp;P1;durP1;ratioP1;P2;durP2;ratioP2
63926;SDS011;50103;47.960;21.712;2022-12-24T06:01:53;225.40;;;125.70;;
63926;SDS011;50103;47.960;21.712;2022-12-24T06:04:19;227.20;;;124.10;;
63926;SDS011;50103;47.960;21.712;2022-12-24T06:06:44;239.70;;;128.70;;
63926;SDS011;50103;47.960;21.712;2022-12-24T06:09:10;231.10;;;126.50;;
63926;SDS011;50103;47.960;21.712;2022-12-24T06:11:35;218.70;;;122.10;;
63926;SDS011;50103;47.960;21.712;2022-12-24T06:14:01;221.90;;;121.10;;
63926;SDS011;50103;47.960;21.712;2022-12-24T06:16:27;235.90;;;127.80;;
63926;SDS011;50103;47.960;21.712;2022-12-24T06:18:52;228.80;;;128.40;;
63926;SDS011;50103;47.960;21.712;2022-12-24T06:21:18;218.40;;;123.80;;
63926;SDS011;50103;47.960;21.712;2022-12-24T06:23:44;228.30;;;128.10;;
63926;SDS011;50103;47.960;21.712;2022-12-24T06:26:12;247.60;;;135.60;;
63926;SDS011;50103;47.960;21.712;2022-12-24T06:28:40;237.90;;;127.40;;
63926;SDS011;50103;47.960;21.712;2022-12-24T06:31:06;227.50;;;126.60;;
63926;SDS011;50103;47.960;21.712;2022-12-24T06:33:36;269.70;;;137.70;;
63926;SDS011;50103;47.960;21.712;2022-12-24T06:36:04;264.00;;;133.70;;
63926;SDS011;50103;47.960;21.712;2022-12-24T06:38:34;257.60;;;131.90;;
63926;SDS011;50103;47.960;21.712;2022-12-24T06:41:03;242.60;;;135.70;;
63926;SDS011;50103;47.960;21.712;2022-12-24T06:43:30;288.10;;;141.70;;
63926;SDS011;50103;47.960;21.712;2022-12-24T06:45:55;251.90;;;132.10;;
63926;SDS011;50103;47.960;21.712;2022-12-24T06:48:21;246.60;;;132.60;;
63926;SDS011;50103;47.960;21.712;2022-12-24T06:50:46;231.80;;;125.70;;
63926;SDS011;50103;47.960;21.712;2022-12-24T06:53:12;244.80;;;128.10;;
63926;SDS011;50103;47.960;21.712;2022-12-24T06:55:37;241.50;;;120.80;;
63926;SDS011;50103;47.960;21.712;2022-12-24T06:58:03;275.50;;;146.40;;
63926;SDS011;50103;47.960;21.712;2022-12-24T07:00:28;277.00;;;145.20;;
63926;SDS011;50103;47.960;21.712;2022-12-24T07:02:54;282.90;;;143.20;;
63926;SDS011;50103;47.960;21.712;2022-12-24T07:05:19;259.60;;;134.70;;
63926;SDS011;50103;47.960;21.712;2022-12-24T07:07:45;268.90;;;141.00;;
63926;SDS011;50103;47.960;21.712;2022-12-24T07:10:11;283.80;;;140.50;;
63926;SDS011;50103;47.960;21.712;2022-12-24T07:12:39;259.50;;;134.40;;
63926;SDS011;50103;47.960;21.712;2022-12-24T07:15:05;249.20;;;134.10;;
63926;SDS011;50103;47.960;21.712;2022-12-24T07:17:31;268.20;;;137.90;;
63926;SDS011;50103;47.960;21.712;2022-12-24T07:19:56;270.60;;;136.50;;
63926;SDS011;50103;47.960;21.712;2022-12-24T07:22:22;287.60;;;144.70;;
63926;SDS011;50103;47.960;21.712;2022-12-24T07:24:47;290.80;;;151.40;;
63926;SDS011;50103;47.960;21.712;2022-12-24T07:27:13;297.60;;;144.90;;
63926;SDS011;50103;47.960;21.712;2022-12-24T07:29:38;299.10;;;146.90;;
63926;SDS011;50103;47.960;21.712;2022-12-24T07:32:05;255.10;;;124.70;;
63926;SDS011;50103;47.960;21.712;2022-12-24T07:34:30;275.80;;;131.20;;
63926;SDS011;50103;47.960;21.712;2022-12-24T07:36:56;278.10;;;127.90;;
63926;SDS011;50103;47.960;21.712;2022-12-24T07:39:22;250.00;;;118.10;;
63926;SDS011;50103;47.960;21.712;2022-12-24T07:41:47;231.20;;;105.60;;
63926;SDS011;50103;47.960;21.712;2022-12-24T07:44:14;230.00;;;105.20;;
63926;SDS011;50103;47.960;21.712;2022-12-24T07:46:40;231.90;;;101.30;;
63926;SDS011;50103;47.960;21.712;2022-12-24T07:49:06;238.30;;;103.20;;
63926;SDS011;50103;47.960;21.712;2022-12-24T07:51:32;243.20;;;99.30;;
63926;SDS011;50103;47.960;21.712;2022-12-24T07:53:57;214.10;;;91.80;;
63926;SDS011;50103;47.960;21.712;2022-12-24T07:56:23;223.90;;;98.80;;
63926;SDS011;50103;47.960;21.712;2022-12-24T07:58:49;236.80;;;102.20;;
63926;SDS011;50103;47.960;21.712;2022-12-24T08:01:15;227.70;;;99.30;;
63926;SDS011;50103;47.960;21.712;2022-12-24T08:03:41;245.20;;;102.00;;
63926;SDS011;50103;47.960;21.712;2022-12-24T08:06:06;234.20;;;99.60;;
63926;SDS011;50103;47.960;21.712;2022-12-24T08:08:32;223.30;;;91.70;;
63926;SDS011;50103;47.960;21.712;2022-12-24T08:11:01;234.20;;;97.10;;
63926;SDS011;50103;47.960;21.712;2022-12-24T08:13:29;260.30;;;102.60;;
63926;SDS011;50103;47.960;21.712;2022-12-24T08:15:55;220.80;;;90.70;;
63926;SDS011;50103;47.960;21.712;2022-12-24T08:18:20;189.70;;;78.90;;
63926;SDS011;50103;47.960;21.712;2022-12-24T08:20:46;206.00;;;83.10;;
63926;SDS011;50103;47.960;21.712;2022-12-24T08:23:12;195.70;;;81.60;;
63926;SDS011;50103;47.960;21.712;2022-12-24T08:25:40;176.00;;;71.00;;
63926;SDS011;50103;47.960;21.712;2022-12-24T08:28:10;184.10;;;78.10;;
63926;SDS011;50103;47.960;21.712;2022-12-24T08:30:37;190.70;;;80.30;;
63926;SDS011;50103;47.960;21.712;2022-12-24T08:33:03;175.10;;;75.70;;
63926;SDS011;50103;47.960;21.712;2022-12-24T08:35:29;205.40;;;84.70;;
63926;SDS011;50103;47.960;21.712;2022-12-24T08:37:54;201.50;;;81.70;;
63926;SDS011;50103;47.960;21.712;2022-12-24T08:40:20;194.70;;;82.80;;
63926;SDS011;50103;47.960;21.712;2022-12-24T08:42:46;195.20;;;83.60;;
63926;SDS011;50103;47.960;21.712;2022-12-24T08:45:11;210.00;;;84.60;;
63926;SDS011;50103;47.960;21.712;2022-12-24T08:47:38;195.70;;;83.30;;
63926;SDS011;50103;47.960;21.712;2022-12-24T08:50:04;205.90;;;84.50;;
63926;SDS011;50103;47.960;21.712;2022-12-24T08:54:56;196.90;;;81.60;;
63926;SDS011;50103;47.960;21.712;2022-12-24T08:57:21;218.40;;;89.30;;
63926;SDS011;50103;47.960;21.712;2022-12-24T08:59:47;227.40;;;87.60;;
63926;SDS011;50103;47.960;21.712;2022-12-24T09:02:13;217.20;;;86.00;;
63926;SDS011;50103;47.960;21.712;2022-12-24T09:04:39;216.30;;;86.40;;
63926;SDS011;50103;47.960;21.712;2022-12-24T09:07:05;192.20;;;76.60;;
63926;SDS011;50103;47.960;21.712;2022-12-24T09:09:34;217.60;;;79.40;;
63926;SDS011;50103;47.960;21.712;2022-12-24T09:12:02;190.90;;;77.40;;
63926;SDS011;50103;47.960;21.712;2022-12-24T09:14:31;183.30;;;74.70;;
63926;SDS011;50103;47.960;21.712;2022-12-24T09:16:57;207.40;;;98.60;;
63926;SDS011;50103;47.960;21.712;2022-12-24T09:19:23;187.10;;;76.90;;
63926;SDS011;50103;47.960;21.712;2022-12-24T09:21:49;186.30;;;76.20;;
63926;SDS011;50103;47.960;21.712;2022-12-24T09:24:14;178.70;;;73.50;;
63926;SDS011;50103;47.960;21.712;2022-12-24T09:26:40;200.30;;;78.50;;
63926;SDS011;50103;47.960;21.712;2022-12-24T09:29:06;182.70;;;76.00;;
63926;SDS011;50103;47.960;21.712;2022-12-24T09:31:32;190.70;;;77.20;;
63926;SDS011;50103;47.960;21.712;2022-12-24T09:33:58;181.80;;;79.60;;
63926;SDS011;50103;47.960;21.712;2022-12-24T09:36:23;182.50;;;72.00;;
63926;SDS011;50103;47.960;21.712;2022-12-24T09:38:49;207.00;;;95.30;;
63926;SDS011;50103;47.960;21.712;2022-12-24T09:44:01;190.10;;;86.50;;
63926;SDS011;50103;47.960;21.712;2022-12-24T09:46:37;182.80;;;79.80;;
63926;SDS011;50103;47.960;21.712;2022-12-24T09:49:09;175.70;;;72.90;;
63926;SDS011;50103;47.960;21.712;2022-12-24T09:51:42;175.90;;;71.50;;
63926;SDS011;50103;47.960;21.712;2022-12-24T09:54:27;173.50;;;71.40;;
63926;SDS011;50103;47.960;21.712;2022-12-24T09:56:56;179.00;;;75.60;;
63926;SDS011;50103;47.960;21.712;2022-12-24T09:59:43;153.80;;;66.70;;
63926;SDS011;50103;47.960;21.712;2022-12-24T10:02:11;165.30;;;62.80;;
63926;SDS011;50103;47.960;21.712;2022-12-24T10:04:39;152.80;;;64.20;;
63926;SDS011;50103;47.960;21.712;2022-12-24T10:07:15;165.60;;;66.80;;
63926;SDS011;50103;47.960;21.712;2022-12-24T10:10:14;158.70;;;67.20;;
63926;SDS011;50103;47.960;21.712;2022-12-24T10:21:21;152.70;;;65.50;;
63926;SDS011;50103;47.960;21.712;2022-12-24T10:23:59;162.30;;;68.70;;
63926;SDS011;50103;47.960;21.712;2022-12-24T10:26:44;157.70;;;67.70;;
63926;SDS011;50103;47.960;21.712;2022-12-24T10:29:16;149.30;;;66.00;;
63926;SDS011;50103;47.960;21.712;2022-12-24T10:31:50;149.20;;;66.10;;
63926;SDS011;50103;47.960;21.712;2022-12-24T10:34:45;145.20;;;64.80;;
63926;SDS011;50103;47.960;21.712;2022-12-24T10:37:21;151.20;;;65.40;;
63926;SDS011;50103;47.960;21.712;2022-12-24T10:39:49;130.60;;;61.60;;
63926;SDS011;50103;47.960;21.712;2022-12-24T10:42:15;133.20;;;63.30;;
63926;SDS011;50103;47.960;21.712;2022-12-24T10:44:44;136.10;;;64.60;;
63926;SDS011;50103;47.960;21.712;2022-12-24T10:47:14;129.70;;;60.30;;
63926;SDS011;50103;47.960;21.712;2022-12-24T10:49:58;125.80;;;60.60;;
63926;SDS011;50103;47.960;21.712;2022-12-24T10:52:32;124.00;;;59.50;;
63926;SDS011;50103;47.960;21.712;2022-12-24T10:55:06;118.70;;;59.10;;
63926;SDS011;50103;47.960;21.712;2022-12-24T10:57:32;111.40;;;56.00;;
63926;SDS011;50103;47.960;21.712;2022-12-24T10:59:59;107.10;;;54.20;;
63926;SDS011;50103;47.960;21.712;2022-12-24T11:05:03;104.40;;;54.20;;
63926;SDS011;50103;47.960;21.712;2022-12-24T11:07:31;115.40;;;53.20;;
63926;SDS011;50103;47.960;21.712;2022-12-24T11:10:04;107.30;;;53.20;;
63926;SDS011;50103;47.960;21.712;2022-12-24T11:12:33;101.80;;;54.40;;
63926;SDS011;50103;47.960;21.712;2022-12-24T11:15:05;109.90;;;56.90;;
63926;SDS011;50103;47.960;21.712;2022-12-24T11:17:53;119.30;;;57.90;;
63926;SDS011;50103;47.960;21.712;2022-12-24T11:20:28;112.40;;;56.00;;
63926;SDS011;50103;47.960;21.712;2022-12-24T11:22:56;103.10;;;55.00;;
63926;SDS011;50103;47.960;21.712;2022-12-24T11:25:29;107.70;;;57.30;;
63926;SDS011;50103;47.960;21.712;2022-12-24T11:28:09;104.60;;;55.20;;
63926;SDS011;50103;47.960;21.712;2022-12-24T11:30:37;111.80;;;55.50;;
63926;SDS011;50103;47.960;21.712;2022-12-24T11:35:29;101.50;;;52.40;;
63926;SDS011;50103;47.960;21.712;2022-12-24T11:40:32;100.10;;;52.10;;
63926;SDS011;50103;47.960;21.712;2022-12-24T11:43:04;106.30;;;55.60;;
63926;SDS011;50103;47.960;21.712;2022-12-24T11:45:31;105.90;;;53.40;;
63926;SDS011;50103;47.960;21.712;2022-12-24T11:47:58;103.30;;;54.90;;
63926;SDS011;50103;47.960;21.712;2022-12-24T11:50:29;98.60;;;53.90;;
63926;SDS011;50103;47.960;21.712;2022-12-24T11:53:04;103.70;;;53.80;;
63926;SDS011;50103;47.960;21.712;2022-12-24T11:58:15;107.30;;;58.80;;
63926;SDS011;50103;47.960;21.712;2022-12-24T12:00:59;115.20;;;60.60;;
63926;SDS011;50103;47.960;21.712;2022-12-24T12:03:49;117.50;;;61.10;;
63926;SDS011;50103;47.960;21.712;2022-12-24T12:06:26;124.70;;;63.40;;
63926;SDS011;50103;47.960;21.712;2022-12-24T12:09:01;137.00;;;67.70;;
63926;SDS011;50103;47.960;21.712;2022-12-24T12:11:31;130.30;;;66.70;;
63926;SDS011;50103;47.960;21.712;2022-12-24T12:14:19;129.10;;;65.10;;
63926;SDS011;50103;47.960;21.712;2022-12-24T12:16:58;128.80;;;63.10;;
63926;SDS011;50103;47.960;21.712;2022-12-24T12:19:42;118.50;;;59.50;;
63926;SDS011;50103;47.960;21.712;2022-12-24T12:22:20;124.00;;;60.50;;
63926;SDS011;50103;47.960;21.712;2022-12-24T12:24:53;118.70;;;59.40;;
63926;SDS011;50103;47.960;21.712;2022-12-24T12:27:26;126.10;;;58.30;;
63926;SDS011;50103;47.960;21.712;2022-12-24T12:30:02;127.40;;;59.00;;
63926;SDS011;50103;47.960;21.712;2022-12-24T12:32:37;130.60;;;59.90;;
63926;SDS011;50103;47.960;21.712;2022-12-24T12:35:30;136.90;;;59.60;;
63926;SDS011;50103;47.960;21.712;2022-12-24T12:38:00;123.90;;;55.60;;
63926;SDS011;50103;47.960;21.712;2022-12-24T12:41:07;128.20;;;57.20;;
63926;SDS011;50103;47.960;21.712;2022-12-24T12:49:37;124.70;;;55.30;;
63926;SDS011;50103;47.960;21.712;2022-12-24T12:58:24;124.90;;;57.10;;
63926;SDS011;50103;47.960;21.712;2022-12-24T13:00:58;120.20;;;56.40;;
63926;SDS011;50103;47.960;21.712;2022-12-24T13:03:40;123.60;;;54.50;;
63926;SDS011;50103;47.960;21.712;2022-12-24T13:08:47;124.90;;;53.40;;
63926;SDS011;50103;47.960;21.712;2022-12-24T13:20:03;127.90;;;55.30;;
63926;SDS011;50103;47.960;21.712;2022-12-24T13:22:34;120.40;;;53.30;;
63926;SDS011;50103;47.960;21.712;2022-12-24T13:25:00;123.20;;;56.10;;
63926;SDS011;50103;47.960;21.712;2022-12-24T13:27:30;124.30;;;55.50;;
63926;SDS011;50103;47.960;21.712;2022-12-24T13:30:05;122.60;;;55.80;;
63926;SDS011;50103;47.960;21.712;2022-12-24T13:32:51;131.10;;;57.10;;
63926;SDS011;50103;47.960;21.712;2022-12-24T13:37:47;125.50;;;55.70;;
63926;SDS011;50103;47.960;21.712;2022-12-24T13:53:29;147.50;;;67.10;;
63926;SDS011;50103;47.960;21.712;2022-12-24T13:56:02;152.80;;;67.10;;
63926;SDS011;50103;47.960;21.712;2022-12-24T14:01:42;164.60;;;70.80;;
63926;SDS011;50103;47.960;21.712;2022-12-24T14:04:09;149.10;;;68.00;;
63926;SDS011;50103;47.960;21.712;2022-12-24T14:06:48;153.00;;;68.00;;
63926;SDS011;50103;47.960;21.712;2022-12-24T14:09:17;147.90;;;67.00;;
63926;SDS011;50103;47.960;21.712;2022-12-24T14:14:28;151.60;;;67.50;;
63926;SDS011;50103;47.960;21.712;2022-12-24T14:17:06;155.00;;;65.60;;
63926;SDS011;50103;47.960;21.712;2022-12-24T14:19:44;153.60;;;65.80;;
63926;SDS011;50103;47.960;21.712;2022-12-24T14:24:55;144.60;;;65.00;;
63926;SDS011;50103;47.960;21.712;2022-12-24T14:27:58;150.10;;;65.00;;
63926;SDS011;50103;47.960;21.712;2022-12-24T14:30:30;145.50;;;63.20;;
63926;SDS011;50103;47.960;21.712;2022-12-24T14:32:55;152.00;;;63.10;;
63926;SDS011;50103;47.960;21.712;2022-12-24T14:35:37;144.50;;;64.70;;
63926;SDS011;50103;47.960;21.712;2022-12-24T14:38:05;141.10;;;65.10;;
63926;SDS011;50103;47.960;21.712;2022-12-24T14:40:39;148.00;;;64.60;;
63926;SDS011;50103;47.960;21.712;2022-12-24T14:48:49;144.70;;;64.40;;
63926;SDS011;50103;47.960;21.712;2022-12-24T14:57:11;163.60;;;71.30;;
63926;SDS011;50103;47.960;21.712;2022-12-24T14:59:52;160.70;;;72.90;;
63926;SDS011;50103;47.960;21.712;2022-12-24T15:02:23;164.10;;;74.30;;
63926;SDS011;50103;47.960;21.712;2022-12-24T15:05:14;166.70;;;71.40;;
63926;SDS011;50103;47.960;21.712;2022-12-24T15:07:46;160.10;;;70.30;;
63926;SDS011;50103;47.960;21.712;2022-12-24T15:12:54;181.00;;;73.30;;
63926;SDS011;50103;47.960;21.712;2022-12-24T15:15:22;164.70;;;75.40;;
63926;SDS011;50103;47.960;21.712;2022-12-24T15:17:48;192.50;;;77.50;;
63926;SDS011;50103;47.960;21.712;2022-12-24T15:20:18;193.10;;;79.30;;
63926;SDS011;50103;47.960;21.712;2022-12-24T15:22:52;248.20;;;83.20;;
63926;SDS011;50103;47.960;21.712;2022-12-24T15:25:30;255.60;;;87.00;;
63926;SDS011;50103;47.960;21.712;2022-12-24T15:27:56;265.70;;;87.30;;
63926;SDS011;50103;47.960;21.712;2022-12-24T15:30:24;227.70;;;78.30;;
63926;SDS011;50103;47.960;21.712;2022-12-24T15:32:52;221.90;;;79.00;;
63926;SDS011;50103;47.960;21.712;2022-12-24T15:38:30;340.00;;;90.10;;
63926;SDS011;50103;47.960;21.712;2022-12-24T15:41:02;251.70;;;93.90;;
63926;SDS011;50103;47.960;21.712;2022-12-24T15:43:30;245.80;;;95.40;;
63926;SDS011;50103;47.960;21.712;2022-12-24T15:45:56;397.30;;;102.10;;
63926;SDS011;50103;47.960;21.712;2022-12-24T15:48:23;306.10;;;89.40;;
63926;SDS011;50103;47.960;21.712;2022-12-24T15:50:53;421.10;;;98.40;;
63926;SDS011;50103;47.960;21.712;2022-12-24T15:53:29;224.80;;;80.40;;
63926;SDS011;50103;47.960;21.712;2022-12-24T15:56:12;231.90;;;80.60;;
63926;SDS011;50103;47.960;21.712;2022-12-24T15:59:10;247.30;;;81.50;;
63926;SDS011;50103;47.960;21.712;2022-12-24T16:01:55;278.60;;;92.90;;
63926;SDS011;50103;47.960;21.712;2022-12-24T16:04:41;380.50;;;106.20;;
63926;SDS011;50103;47.960;21.712;2022-12-24T16:07:08;428.30;;;107.00;;
63926;SDS011;50103;47.960;21.712;2022-12-24T16:09:47;275.00;;;96.40;;
63926;SDS011;50103;47.960;21.712;2022-12-24T16:12:20;299.70;;;91.20;;
63926;SDS011;50103;47.960;21.712;2022-12-24T16:14:57;222.60;;;88.50;;
63926;SDS011;50103;47.960;21.712;2022-12-24T16:17:25;193.90;;;91.50;;
63926;SDS011;50103;47.960;21.712;2022-12-24T16:19:55;191.60;;;89.50;;
63926;SDS011;50103;47.960;21.712;2022-12-24T16:22:24;210.80;;;89.20;;
63926;SDS011;50103;47.960;21.712;2022-12-24T16:24:56;288.30;;;99.30;;
63926;SDS011;50103;47.960;21.712;2022-12-24T16:27:23;286.60;;;101.10;;
63926;SDS011;50103;47.960;21.712;2022-12-24T16:29:48;260.90;;;97.30;;
63926;SDS011;50103;47.960;21.712;2022-12-24T16:32:22;198.70;;;91.40;;
63926;SDS011;50103;47.960;21.712;2022-12-24T16:34:55;262.00;;;98.60;;
63926;SDS011;50103;47.960;21.712;2022-12-24T16:37:20;169.70;;;90.50;;
63926;SDS011;50103;47.960;21.712;2022-12-24T16:39:46;201.10;;;97.50;;
63926;SDS011;50103;47.960;21.712;2022-12-24T16:42:12;234.50;;;103.70;;
63926;SDS011;50103;47.960;21.712;2022-12-24T16:44:56;178.80;;;98.80;;
63926;SDS011;50103;47.960;21.712;2022-12-24T16:47:31;206.20;;;102.80;;
63926;SDS011;50103;47.960;21.712;2022-12-24T16:49:58;192.60;;;97.70;;
63926;SDS011;50103;47.960;21.712;2022-12-24T16:52:28;188.30;;;101.70;;
63926;SDS011;50103;47.960;21.712;2022-12-24T16:54:58;184.50;;;101.10;;
63926;SDS011;50103;47.960;21.712;2022-12-24T16:57:24;193.80;;;107.90;;
63926;SDS011;50103;47.960;21.712;2022-12-24T16:59:50;203.10;;;112.00;;
63926;SDS011;50103;47.960;21.712;2022-12-24T17:02:17;188.50;;;115.80;;
63926;SDS011;50103;47.960;21.712;2022-12-24T17:04:45;179.60;;;108.10;;
63926;SDS011;50103;47.960;21.712;2022-12-24T17:07:11;198.80;;;113.70;;
63926;SDS011;50103;47.960;21.712;2022-12-24T17:09:38;182.90;;;110.50;;
63926;SDS011;50103;47.960;21.712;2022-12-24T17:12:04;186.40;;;110.50;;
63926;SDS011;50103;47.960;21.712;2022-12-24T17:14:30;184.00;;;113.50;;
63926;SDS011;50103;47.960;21.712;2022-12-24T17:16:55;199.80;;;117.70;;
63926;SDS011;50103;47.960;21.712;2022-12-24T17:19:21;204.60;;;122.30;;
63926;SDS011;50103;47.960;21.712;2022-12-24T17:21:46;228.70;;;129.80;;
63926;SDS011;50103;47.960;21.712;2022-12-24T17:24:12;210.00;;;128.80;;
63926;SDS011;50103;47.960;21.712;2022-12-24T17:26:38;219.20;;;129.20;;
63926;SDS011;50103;47.960;21.712;2022-12-24T17:29:04;212.90;;;128.10;;
63926;SDS011;50103;47.960;21.712;2022-12-24T17:31:30;213.30;;;129.40;;
63926;SDS011;50103;47.960;21.712;2022-12-24T17:33:56;220.10;;;132.00;;
63926;SDS011;50103;47.960;21.712;2022-12-24T17:36:23;225.70;;;142.90;;
63926;SDS011;50103;47.960;21.712;2022-12-24T17:38:49;244.00;;;158.90;;
63926;SDS011;50103;47.960;21.712;2022-12-24T17:41:15;243.50;;;152.10;;
63926;SDS011;50103;47.960;21.712;2022-12-24T17:43:42;237.90;;;154.90;;
63926;SDS011;50103;47.960;21.712;2022-12-24T17:46:09;232.30;;;156.00;;
63926;SDS011;50103;47.960;21.712;2022-12-24T17:48:41;237.30;;;162.50;;
63926;SDS011;50103;47.960;21.712;2022-12-24T17:51:07;252.40;;;173.50;;
63926;SDS011;50103;47.960;21.712;2022-12-24T17:53:35;248.80;;;164.20;;
63926;SDS011;50103;47.960;21.712;2022-12-24T17:56:02;244.60;;;166.90;;
63926;SDS011;50103;47.960;21.712;2022-12-24T17:58:28;247.80;;;172.30;;
63926;SDS011;50103;47.960;21.712;2022-12-24T18:00:54;251.70;;;171.90;;
63926;SDS011;50103;47.960;21.712;2022-12-24T18:03:21;231.00;;;158.30;;
63926;SDS011;50103;47.960;21.712;2022-12-24T18:05:47;220.10;;;144.20;;
63926;SDS011;50103;47.960;21.712;2022-12-24T18:08:13;219.00;;;152.80;;
63926;SDS011;50103;47.960;21.712;2022-12-24T18:10:38;226.70;;;149.70;;
63926;SDS011;50103;47.960;21.712;2022-12-24T18:13:05;210.40;;;141.90;;
63926;SDS011;50103;47.960;21.712;2022-12-24T18:15:32;223.30;;;153.00;;
63926;SDS011;50103;47.960;21.712;2022-12-24T18:17:59;231.70;;;159.20;;
63926;SDS011;50103;47.960;21.712;2022-12-24T18:20:24;251.10;;;166.40;;
63926;SDS011;50103;47.960;21.712;2022-12-24T18:22:50;253.30;;;169.10;;
63926;SDS011;50103;47.960;21.712;2022-12-24T18:25:16;253.00;;;167.20;;
63926;SDS011;50103;47.960;21.712;2022-12-24T18:27:41;233.40;;;156.20;;
63926;SDS011;50103;47.960;21.712;2022-12-24T18:30:07;230.30;;;166.20;;
63926;SDS011;50103;47.960;21.712;2022-12-24T18:32:33;236.60;;;156.30;;
63926;SDS011;50103;47.960;21.712;2022-12-24T18:35:00;241.80;;;166.10;;
63926;SDS011;50103;47.960;21.712;2022-12-24T18:37:25;250.20;;;160.10;;
63926;SDS011;50103;47.960;21.712;2022-12-24T18:39:51;243.90;;;165.80;;
63926;SDS011;50103;47.960;21.712;2022-12-24T18:42:17;250.90;;;180.50;;
63926;SDS011;50103;47.960;21.712;2022-12-24T18:44:42;244.00;;;177.80;;
63926;SDS011;50103;47.960;21.712;2022-12-24T18:47:08;241.20;;;173.00;;
63926;SDS011;50103;47.960;21.712;2022-12-24T18:49:37;238.70;;;163.60;;
63926;SDS011;50103;47.960;21.712;2022-12-24T18:52:03;223.80;;;153.30;;
63926;SDS011;50103;47.960;21.712;2022-12-24T18:54:30;217.20;;;146.10;;
63926;SDS011;50103;47.960;21.712;2022-12-24T18:56:56;215.10;;;148.40;;
63926;SDS011;50103;47.960;21.712;2022-12-24T18:59:21;212.60;;;142.40;;
63926;SDS011;50103;47.960;21.712;2022-12-24T19:01:47;212.00;;;145.60;;
63926;SDS011;50103;47.960;21.712;2022-12-24T19:04:12;198.40;;;135.30;;
63926;SDS011;50103;47.960;21.712;2022-12-24T19:06:41;198.60;;;138.40;;
63926;SDS011;50103;47.960;21.712;2022-12-24T19:09:07;240.10;;;172.80;;
63926;SDS011;50103;47.960;21.712;2022-12-24T19:11:34;254.10;;;179.50;;
63926;SDS011;50103;47.960;21.712;2022-12-24T19:14:03;241.40;;;165.80;;
63926;SDS011;50103;47.960;21.712;2022-12-24T19:16:31;228.50;;;149.90;;
63926;SDS011;50103;47.960;21.712;2022-12-24T19:18:58;214.20;;;149.10;;
63926;SDS011;50103;47.960;21.712;2022-12-24T19:21:24;211.30;;;152.00;;
63926;SDS011;50103;47.960;21.712;2022-12-24T19:23:50;204.00;;;137.90;;
63926;SDS011;50103;47.960;21.712;2022-12-24T19:26:16;200.70;;;134.30;;
63926;SDS011;50103;47.960;21.712;2022-12-24T19:28:43;201.70;;;136.90;;
63926;SDS011;50103;47.960;21.712;2022-12-24T19:31:11;203.10;;;140.70;;
63926;SDS011;50103;47.960;21.712;2022-12-24T19:33:56;208.50;;;143.10;;
63926;SDS011;50103;47.960;21.712;2022-12-24T19:36:23;199.40;;;136.60;;
63926;SDS011;50103;47.960;21.712;2022-12-24T19:38:50;218.90;;;144.00;;
63926;SDS011;50103;47.960;21.712;2022-12-24T19:41:17;232.20;;;159.20;;
63926;SDS011;50103;47.960;21.712;2022-12-24T19:43:46;257.20;;;184.40;;
63926;SDS011;50103;47.960;21.712;2022-12-24T19:46:14;246.40;;;167.70;;
63926;SDS011;50103;47.960;21.712;2022-12-24T19:48:42;232.50;;;162.00;;
63926;SDS011;50103;47.960;21.712;2022-12-24T19:51:09;230.30;;;164.20;;
63926;SDS011;50103;47.960;21.712;2022-12-24T19:53:36;226.30;;;155.50;;
63926;SDS011;50103;47.960;21.712;2022-12-24T19:56:03;224.00;;;160.20;;
63926;SDS011;50103;47.960;21.712;2022-12-24T19:58:29;241.20;;;168.10;;
63926;SDS011;50103;47.960;21.712;2022-12-24T20:01:03;222.60;;;161.50;;
